sensor_id;sensor_type;location;lat;lon;timestamp;P1;durP1;ratioP1;P2;durP2;ratioP2
40284;SDS011;25997;50.214;19.354;2022-08-19T00:02:05;13.13;;;11.93;;
40284;SDS011;25997;50.214;19.354;2022-08-19T00:05:10;13.60;;;12.40;;
40284;SDS011;25997;50.214;19.354;2022-08-19T00:08:13;13.35;;;11.95;;
40284;SDS011;25997;50.214;19.354;2022-08-19T00:11:16;15.88;;;12.27;;
40284;SDS011;25997;50.214;19.354;2022-08-19T00:14:18;13.40;;;12.10;;
40284;SDS011;25997;50.214;19.354;2022-08-19T00:17:22;13.48;;;11.93;;
40284;SDS011;25997;50.214;19.354;2022-08-19T00:20:26;13.32;;;11.45;;
40284;SDS011;25997;50.214;19.354;2022-08-19T00:23:29;13.60;;;12.35;;
40284;SDS011;25997;50.214;19.354;2022-08-19T00:26:34;14.77;;;11.77;;
40284;SDS011;25997;50.214;19.354;2022-08-19T00:29:37;13.30;;;12.13;;
40284;SDS011;25997;50.214;19.354;2022-08-19T00:32:40;15.00;;;13.35;;
40284;SDS011;25997;50.214;19.354;2022-08-19T00:35:45;13.07;;;11.68;;
40284;SDS011;25997;50.214;19.354;2022-08-19T00:38:48;17.30;;;12.00;;
40284;SDS011;25997;50.214;19.354;2022-08-19T00:41:53;13.10;;;11.95;;
40284;SDS011;25997;50.214;19.354;2022-08-19T00:44:56;13.90;;;12.55;;
40284;SDS011;25997;50.214;19.354;2022-08-19T00:47:59;14.75;;;13.23;;
40284;SDS011;25997;50.214;19.354;2022-08-19T00:51:05;13.80;;;12.40;;
40284;SDS011;25997;50.214;19.354;2022-08-19T00:54:08;14.07;;;12.60;;
40284;SDS011;25997;50.214;19.354;2022-08-19T00:57:12;13.32;;;12.20;;
40284;SDS011;25997;50.214;19.354;2022-08-19T01:00:19;13.68;;;12.27;;
40284;SDS011;25997;50.214;19.354;2022-08-19T01:03:22;14.40;;;13.15;;
40284;SDS011;25997;50.214;19.354;2022-08-19T01:06:26;13.38;;;12.07;;
40284;SDS011;25997;50.214;19.354;2022-08-19T01:09:31;13.65;;;12.35;;
40284;SDS011;25997;50.214;19.354;2022-08-19T01:12:34;13.85;;;12.65;;
40284;SDS011;25997;50.214;19.354;2022-08-19T01:15:38;13.88;;;12.68;;
40284;SDS011;25997;50.214;19.354;2022-08-19T01:18:45;15.32;;;13.90;;
40284;SDS011;25997;50.214;19.354;2022-08-19T01:21:50;14.82;;;13.30;;
40284;SDS011;25997;50.214;19.354;2022-08-19T01:24:59;15.55;;;14.05;;
40284;SDS011;25997;50.214;19.354;2022-08-19T01:28:02;16.35;;;13.95;;
40284;SDS011;25997;50.214;19.354;2022-08-19T01:31:05;18.27;;;16.45;;
40284;SDS011;25997;50.214;19.354;2022-08-19T01:34:09;19.35;;;17.55;;
40284;SDS011;25997;50.214;19.354;2022-08-19T01:37:12;18.48;;;16.50;;
40284;SDS011;25997;50.214;19.354;2022-08-19T01:40:17;17.38;;;15.52;;
40284;SDS011;25997;50.214;19.354;2022-08-19T01:43:22;15.80;;;14.32;;
40284;SDS011;25997;50.214;19.354;2022-08-19T01:46:24;12.88;;;11.82;;
40284;SDS011;25997;50.214;19.354;2022-08-19T01:49:27;14.52;;;13.18;;
40284;SDS011;25997;50.214;19.354;2022-08-19T01:52:29;13.85;;;12.55;;
40284;SDS011;25997;50.214;19.354;2022-08-19T01:55:34;13.77;;;12.52;;
40284;SDS011;25997;50.214;19.354;2022-08-19T01:58:39;14.02;;;12.73;;
40284;SDS011;25997;50.214;19.354;2022-08-19T02:01:43;14.50;;;13.02;;
40284;SDS011;25997;50.214;19.354;2022-08-19T02:04:46;14.82;;;12.27;;
40284;SDS011;25997;50.214;19.354;2022-08-19T02:07:48;14.77;;;12.68;;
40284;SDS011;25997;50.214;19.354;2022-08-19T02:10:53;14.10;;;12.60;;
40284;SDS011;25997;50.214;19.354;2022-08-19T02:13:56;13.65;;;12.35;;
40284;SDS011;25997;50.214;19.354;2022-08-19T02:16:59;13.63;;;12.32;;
40284;SDS011;25997;50.214;19.354;2022-08-19T02:20:02;13.65;;;12.43;;
40284;SDS011;25997;50.214;19.354;2022-08-19T02:23:07;13.15;;;12.05;;
40284;SDS011;25997;50.214;19.354;2022-08-19T02:26:11;13.57;;;12.23;;
40284;SDS011;25997;50.214;19.354;2022-08-19T02:29:14;14.50;;;12.85;;
40284;SDS011;25997;50.214;19.354;2022-08-19T02:32:17;13.90;;;12.40;;
40284;SDS011;25997;50.214;19.354;2022-08-19T02:35:20;13.60;;;12.20;;
40284;SDS011;25997;50.214;19.354;2022-08-19T02:38:23;14.70;;;12.52;;
40284;SDS011;25997;50.214;19.354;2022-08-19T02:41:31;14.25;;;12.63;;
40284;SDS011;25997;50.214;19.354;2022-08-19T02:44:34;14.10;;;12.85;;
40284;SDS011;25997;50.214;19.354;2022-08-19T02:47:37;14.68;;;13.15;;
40284;SDS011;25997;50.214;19.354;2022-08-19T02:50:40;17.48;;;13.15;;
40284;SDS011;25997;50.214;19.354;2022-08-19T02:53:42;13.80;;;12.40;;
40284;SDS011;25997;50.214;19.354;2022-08-19T02:56:46;13.00;;;11.70;;
40284;SDS011;25997;50.214;19.354;2022-08-19T02:59:49;13.10;;;11.80;;
40284;SDS011;25997;50.214;19.354;2022-08-19T03:02:52;12.95;;;11.77;;
40284;SDS011;25997;50.214;19.354;2022-08-19T03:06:05;13.57;;;12.23;;
40284;SDS011;25997;50.214;19.354;2022-08-19T03:09:09;14.13;;;12.27;;
40284;SDS011;25997;50.214;19.354;2022-08-19T03:12:14;13.73;;;12.30;;
40284;SDS011;25997;50.214;19.354;2022-08-19T03:15:16;14.15;;;12.75;;
40284;SDS011;25997;50.214;19.354;2022-08-19T03:18:19;13.85;;;12.57;;
40284;SDS011;25997;50.214;19.354;2022-08-19T03:21:23;13.60;;;12.30;;
40284;SDS011;25997;50.214;19.354;2022-08-19T03:24:27;12.85;;;11.50;;
40284;SDS011;25997;50.214;19.354;2022-08-19T03:27:31;15.50;;;12.55;;
40284;SDS011;25997;50.214;19.354;2022-08-19T03:30:33;13.07;;;11.82;;
40284;SDS011;25997;50.214;19.354;2022-08-19T03:33:36;13.50;;;12.23;;
40284;SDS011;25997;50.214;19.354;2022-08-19T03:36:39;13.75;;;11.80;;
40284;SDS011;25997;50.214;19.354;2022-08-19T03:39:41;13.13;;;11.88;;
40284;SDS011;25997;50.214;19.354;2022-08-19T03:42:45;13.27;;;11.98;;
40284;SDS011;25997;50.214;19.354;2022-08-19T03:45:48;13.05;;;11.52;;
40284;SDS011;25997;50.214;19.354;2022-08-19T03:48:52;13.13;;;11.77;;
40284;SDS011;25997;50.214;19.354;2022-08-19T03:51:57;13.32;;;11.98;;
40284;SDS011;25997;50.214;19.354;2022-08-19T03:55:01;15.25;;;12.65;;
40284;SDS011;25997;50.214;19.354;2022-08-19T03:58:05;15.75;;;12.02;;
40284;SDS011;25997;50.214;19.354;2022-08-19T04:01:08;13.45;;;12.05;;
40284;SDS011;25997;50.214;19.354;2022-08-19T04:04:11;13.35;;;12.05;;
40284;SDS011;25997;50.214;19.354;2022-08-19T04:07:14;13.45;;;12.13;;
40284;SDS011;25997;50.214;19.354;2022-08-19T04:10:21;13.00;;;11.70;;
40284;SDS011;25997;50.214;19.354;2022-08-19T04:13:26;13.02;;;11.73;;
40284;SDS011;25997;50.214;19.354;2022-08-19T04:16:28;13.90;;;12.35;;
40284;SDS011;25997;50.214;19.354;2022-08-19T04:19:31;13.00;;;11.65;;
40284;SDS011;25997;50.214;19.354;2022-08-19T04:22:34;12.45;;;11.18;;
40284;SDS011;25997;50.214;19.354;2022-08-19T04:25:37;13.93;;;10.73;;
40284;SDS011;25997;50.214;19.354;2022-08-19T04:28:42;13.18;;;11.98;;
40284;SDS011;25997;50.214;19.354;2022-08-19T04:31:45;12.75;;;11.55;;
40284;SDS011;25997;50.214;19.354;2022-08-19T04:34:47;13.02;;;11.80;;
40284;SDS011;25997;50.214;19.354;2022-08-19T04:37:50;12.35;;;10.93;;
40284;SDS011;25997;50.214;19.354;2022-08-19T04:40:53;13.30;;;12.00;;
40284;SDS011;25997;50.214;19.354;2022-08-19T04:44:14;14.30;;;12.13;;
40284;SDS011;25997;50.214;19.354;2022-08-19T04:47:18;14.48;;;11.90;;
40284;SDS011;25997;50.214;19.354;2022-08-19T04:50:21;13.15;;;12.00;;
40284;SDS011;25997;50.214;19.354;2022-08-19T04:53:24;13.50;;;12.13;;
40284;SDS011;25997;50.214;19.354;2022-08-19T04:56:29;12.85;;;11.60;;
40284;SDS011;25997;50.214;19.354;2022-08-19T04:59:33;14.25;;;11.20;;
40284;SDS011;25997;50.214;19.354;2022-08-19T05:02:36;13.25;;;11.90;;
40284;SDS011;25997;50.214;19.354;2022-08-19T05:05:39;12.55;;;11.40;;
40284;SDS011;25997;50.214;19.354;2022-08-19T05:08:43;12.13;;;11.13;;
40284;SDS011;25997;50.214;19.354;2022-08-19T05:11:46;15.40;;;11.70;;
40284;SDS011;25997;50.214;19.354;2022-08-19T05:14:51;14.15;;;11.25;;
40284;SDS011;25997;50.214;19.354;2022-08-19T05:17:54;11.50;;;10.27;;
40284;SDS011;25997;50.214;19.354;2022-08-19T05:21:15;12.57;;;11.27;;
40284;SDS011;25997;50.214;19.354;2022-08-19T05:24:36;12.40;;;10.93;;
40284;SDS011;25997;50.214;19.354;2022-08-19T05:27:39;11.85;;;10.65;;
40284;SDS011;25997;50.214;19.354;2022-08-19T05:30:43;13.25;;;11.30;;
40284;SDS011;25997;50.214;19.354;2022-08-19T05:33:46;15.50;;;12.02;;
40284;SDS011;25997;50.214;19.354;2022-08-19T05:36:49;11.68;;;10.48;;
40284;SDS011;25997;50.214;19.354;2022-08-19T05:39:55;14.80;;;11.27;;
40284;SDS011;25997;50.214;19.354;2022-08-19T05:42:58;13.73;;;11.73;;
40284;SDS011;25997;50.214;19.354;2022-08-19T05:46:02;12.00;;;10.88;;
40284;SDS011;25997;50.214;19.354;2022-08-19T05:49:06;12.02;;;10.93;;
40284;SDS011;25997;50.214;19.354;2022-08-19T05:52:10;12.23;;;10.75;;
40284;SDS011;25997;50.214;19.354;2022-08-19T05:55:16;11.75;;;10.65;;
40284;SDS011;25997;50.214;19.354;2022-08-19T05:58:20;12.48;;;11.38;;
40284;SDS011;25997;50.214;19.354;2022-08-19T06:01:26;12.07;;;11.00;;
40284;SDS011;25997;50.214;19.354;2022-08-19T06:04:28;12.43;;;11.23;;
40284;SDS011;25997;50.214;19.354;2022-08-19T06:07:31;11.57;;;10.18;;
40284;SDS011;25997;50.214;19.354;2022-08-19T06:10:34;12.48;;;11.38;;
40284;SDS011;25997;50.214;19.354;2022-08-19T06:13:37;12.32;;;11.15;;
40284;SDS011;25997;50.214;19.354;2022-08-19T06:16:41;12.00;;;10.93;;
40284;SDS011;25997;50.214;19.354;2022-08-19T06:19:44;15.05;;;11.10;;
40284;SDS011;25997;50.214;19.354;2022-08-19T06:22:48;12.60;;;11.18;;
40284;SDS011;25997;50.214;19.354;2022-08-19T06:25:52;13.25;;;11.25;;
40284;SDS011;25997;50.214;19.354;2022-08-19T06:28:54;12.65;;;10.88;;
40284;SDS011;25997;50.214;19.354;2022-08-19T06:31:59;12.00;;;10.90;;
40284;SDS011;25997;50.214;19.354;2022-08-19T06:35:03;12.32;;;11.05;;
40284;SDS011;25997;50.214;19.354;2022-08-19T06:38:06;12.68;;;11.45;;
40284;SDS011;25997;50.214;19.354;2022-08-19T06:41:10;12.68;;;11.38;;
40284;SDS011;25997;50.214;19.354;2022-08-19T06:44:12;11.85;;;10.63;;
40284;SDS011;25997;50.214;19.354;2022-08-19T06:47:18;14.60;;;9.95;;
40284;SDS011;25997;50.214;19.354;2022-08-19T06:50:22;11.90;;;10.70;;
40284;SDS011;25997;50.214;19.354;2022-08-19T06:53:25;13.32;;;10.82;;
40284;SDS011;25997;50.214;19.354;2022-08-19T06:56:29;14.73;;;10.93;;
40284;SDS011;25997;50.214;19.354;2022-08-19T06:59:35;13.93;;;12.63;;
40284;SDS011;25997;50.214;19.354;2022-08-19T07:02:39;20.52;;;18.75;;
40284;SDS011;25997;50.214;19.354;2022-08-19T07:05:42;15.90;;;14.35;;
40284;SDS011;25997;50.214;19.354;2022-08-19T07:08:45;16.25;;;11.98;;
40284;SDS011;25997;50.214;19.354;2022-08-19T07:11:50;12.85;;;10.80;;
40284;SDS011;25997;50.214;19.354;2022-08-19T07:14:54;12.05;;;10.85;;
40284;SDS011;25997;50.214;19.354;2022-08-19T07:17:58;13.55;;;11.85;;
40284;SDS011;25997;50.214;19.354;2022-08-19T07:21:03;11.73;;;10.43;;
40284;SDS011;25997;50.214;19.354;2022-08-19T07:24:07;11.55;;;10.50;;
40284;SDS011;25997;50.214;19.354;2022-08-19T07:27:10;11.50;;;10.35;;
40284;SDS011;25997;50.214;19.354;2022-08-19T07:30:12;12.10;;;10.90;;
40284;SDS011;25997;50.214;19.354;2022-08-19T07:33:17;12.18;;;10.93;;
40284;SDS011;25997;50.214;19.354;2022-08-19T07:36:21;13.77;;;11.75;;
40284;SDS011;25997;50.214;19.354;2022-08-19T07:39:27;14.07;;;11.13;;
40284;SDS011;25997;50.214;19.354;2022-08-19T07:42:32;11.60;;;10.38;;
40284;SDS011;25997;50.214;19.354;2022-08-19T07:45:34;12.82;;;11.27;;
40284;SDS011;25997;50.214;19.354;2022-08-19T07:48:39;12.27;;;10.85;;
40284;SDS011;25997;50.214;19.354;2022-08-19T07:51:43;18.02;;;12.73;;
40284;SDS011;25997;50.214;19.354;2022-08-19T07:54:46;11.30;;;10.27;;
40284;SDS011;25997;50.214;19.354;2022-08-19T07:57:50;15.18;;;11.95;;
40284;SDS011;25997;50.214;19.354;2022-08-19T08:00:54;12.70;;;11.40;;
40284;SDS011;25997;50.214;19.354;2022-08-19T08:03:58;21.02;;;13.85;;
40284;SDS011;25997;50.214;19.354;2022-08-19T08:07:20;11.65;;;10.65;;
40284;SDS011;25997;50.214;19.354;2022-08-19T08:10:43;13.70;;;12.48;;
40284;SDS011;25997;50.214;19.354;2022-08-19T08:13:47;13.00;;;11.70;;
40284;SDS011;25997;50.214;19.354;2022-08-19T08:16:51;15.65;;;12.73;;
40284;SDS011;25997;50.214;19.354;2022-08-19T08:19:55;13.52;;;11.82;;
40284;SDS011;25997;50.214;19.354;2022-08-19T08:22:58;12.73;;;10.90;;
40284;SDS011;25997;50.214;19.354;2022-08-19T08:26:18;13.00;;;11.68;;
40284;SDS011;25997;50.214;19.354;2022-08-19T08:29:21;12.75;;;11.30;;
40284;SDS011;25997;50.214;19.354;2022-08-19T08:32:23;12.13;;;11.02;;
40284;SDS011;25997;50.214;19.354;2022-08-19T08:35:27;11.80;;;10.52;;
40284;SDS011;25997;50.214;19.354;2022-08-19T08:38:30;11.52;;;10.52;;
40284;SDS011;25997;50.214;19.354;2022-08-19T08:41:37;11.85;;;10.05;;
40284;SDS011;25997;50.214;19.354;2022-08-19T08:44:47;11.48;;;10.45;;
40284;SDS011;25997;50.214;19.354;2022-08-19T08:47:57;10.88;;;9.82;;
40284;SDS011;25997;50.214;19.354;2022-08-19T08:51:05;12.38;;;10.52;;
40284;SDS011;25997;50.214;19.354;2022-08-19T08:54:13;12.65;;;9.13;;
40284;SDS011;25997;50.214;19.354;2022-08-19T08:57:21;11.63;;;10.57;;
40284;SDS011;25997;50.214;19.354;2022-08-19T09:00:30;11.95;;;9.60;;
40284;SDS011;25997;50.214;19.354;2022-08-19T09:03:36;10.57;;;9.02;;
40284;SDS011;25997;50.214;19.354;2022-08-19T09:06:44;13.80;;;9.82;;
40284;SDS011;25997;50.214;19.354;2022-08-19T09:09:55;12.40;;;9.88;;
40284;SDS011;25997;50.214;19.354;2022-08-19T09:13:10;11.32;;;9.55;;
40284;SDS011;25997;50.214;19.354;2022-08-19T09:16:23;10.27;;;9.23;;
40284;SDS011;25997;50.214;19.354;2022-08-19T09:19:28;11.60;;;8.77;;
40284;SDS011;25997;50.214;19.354;2022-08-19T09:22:32;12.32;;;8.93;;
40284;SDS011;25997;50.214;19.354;2022-08-19T09:25:34;10.98;;;8.85;;
40284;SDS011;25997;50.214;19.354;2022-08-19T09:28:37;13.02;;;8.32;;
40284;SDS011;25997;50.214;19.354;2022-08-19T09:31:42;13.23;;;8.90;;
40284;SDS011;25997;50.214;19.354;2022-08-19T09:34:45;13.75;;;8.52;;
40284;SDS011;25997;50.214;19.354;2022-08-19T09:37:49;16.90;;;8.55;;
40284;SDS011;25997;50.214;19.354;2022-08-19T09:40:52;12.93;;;8.00;;
40284;SDS011;25997;50.214;19.354;2022-08-19T09:43:55;11.68;;;8.10;;
40284;SDS011;25997;50.214;19.354;2022-08-19T09:46:59;11.98;;;8.07;;
40284;SDS011;25997;50.214;19.354;2022-08-19T09:50:02;13.13;;;8.00;;
40284;SDS011;25997;50.214;19.354;2022-08-19T09:53:07;11.35;;;7.40;;
40284;SDS011;25997;50.214;19.354;2022-08-19T09:56:10;15.98;;;8.98;;
40284;SDS011;25997;50.214;19.354;2022-08-19T09:59:13;14.60;;;8.60;;
40284;SDS011;25997;50.214;19.354;2022-08-19T10:02:16;13.07;;;7.90;;
40284;SDS011;25997;50.214;19.354;2022-08-19T10:05:19;11.85;;;9.35;;
40284;SDS011;25997;50.214;19.354;2022-08-19T10:08:40;10.40;;;9.30;;
40284;SDS011;25997;50.214;19.354;2022-08-19T10:11:44;13.93;;;9.93;;
40284;SDS011;25997;50.214;19.354;2022-08-19T10:14:48;14.95;;;8.82;;
40284;SDS011;25997;50.214;19.354;2022-08-19T10:17:52;10.60;;;8.93;;
40284;SDS011;25997;50.214;19.354;2022-08-19T10:21:03;12.45;;;8.40;;
40284;SDS011;25997;50.214;19.354;2022-08-19T10:24:10;13.15;;;9.05;;
40284;SDS011;25997;50.214;19.354;2022-08-19T10:27:13;10.10;;;8.70;;
40284;SDS011;25997;50.214;19.354;2022-08-19T10:30:15;14.18;;;8.50;;
40284;SDS011;25997;50.214;19.354;2022-08-19T10:33:18;11.85;;;8.85;;
40284;SDS011;25997;50.214;19.354;2022-08-19T10:36:21;10.88;;;7.90;;
40284;SDS011;25997;50.214;19.354;2022-08-19T10:39:26;11.45;;;8.82;;
40284;SDS011;25997;50.214;19.354;2022-08-19T10:42:30;10.27;;;8.23;;
40284;SDS011;25997;50.214;19.354;2022-08-19T10:45:33;11.35;;;9.00;;
40284;SDS011;25997;50.214;19.354;2022-08-19T10:48:37;10.75;;;8.60;;
40284;SDS011;25997;50.214;19.354;2022-08-19T10:51:40;8.30;;;7.50;;
40284;SDS011;25997;50.214;19.354;2022-08-19T10:55:03;10.13;;;8.20;;
40284;SDS011;25997;50.214;19.354;2022-08-19T10:58:24;11.38;;;8.13;;
40284;SDS011;25997;50.214;19.354;2022-08-19T11:01:27;14.50;;;9.15;;
40284;SDS011;25997;50.214;19.354;2022-08-19T11:04:31;10.27;;;8.90;;
40284;SDS011;25997;50.214;19.354;2022-08-19T11:07:34;12.65;;;8.55;;
40284;SDS011;25997;50.214;19.354;2022-08-19T11:10:38;12.73;;;7.93;;
40284;SDS011;25997;50.214;19.354;2022-08-19T11:13:43;9.73;;;8.20;;
40284;SDS011;25997;50.214;19.354;2022-08-19T11:16:47;10.00;;;7.38;;
40284;SDS011;25997;50.214;19.354;2022-08-19T11:19:50;12.93;;;8.18;;
40284;SDS011;25997;50.214;19.354;2022-08-19T11:22:53;13.15;;;7.63;;
40284;SDS011;25997;50.214;19.354;2022-08-19T11:25:57;9.77;;;8.07;;
40284;SDS011;25997;50.214;19.354;2022-08-19T11:29:00;9.60;;;8.65;;
40284;SDS011;25997;50.214;19.354;2022-08-19T11:32:03;12.15;;;7.90;;
40284;SDS011;25997;50.214;19.354;2022-08-19T11:35:07;10.70;;;8.23;;
40284;SDS011;25997;50.214;19.354;2022-08-19T11:38:11;15.77;;;9.35;;
40284;SDS011;25997;50.214;19.354;2022-08-19T11:41:17;12.82;;;8.52;;
40284;SDS011;25997;50.214;19.354;2022-08-19T11:44:21;9.60;;;8.60;;
40284;SDS011;25997;50.214;19.354;2022-08-19T11:47:23;17.13;;;9.13;;
40284;SDS011;25997;50.214;19.354;2022-08-19T11:50:26;12.02;;;8.98;;
40284;SDS011;25997;50.214;19.354;2022-08-19T11:53:29;12.40;;;7.88;;
40284;SDS011;25997;50.214;19.354;2022-08-19T11:56:33;16.67;;;8.70;;
40284;SDS011;25997;50.214;19.354;2022-08-19T11:59:36;14.70;;;8.85;;
40284;SDS011;25997;50.214;19.354;2022-08-19T12:02:38;18.63;;;7.15;;
40284;SDS011;25997;50.214;19.354;2022-08-19T12:05:41;15.13;;;7.82;;
40284;SDS011;25997;50.214;19.354;2022-08-19T12:08:44;12.15;;;8.77;;
40284;SDS011;25997;50.214;19.354;2022-08-19T12:11:49;18.77;;;10.13;;
40284;SDS011;25997;50.214;19.354;2022-08-19T12:14:52;11.95;;;8.85;;
40284;SDS011;25997;50.214;19.354;2022-08-19T12:17:58;13.77;;;8.75;;
40284;SDS011;25997;50.214;19.354;2022-08-19T12:21:01;10.60;;;7.82;;
40284;SDS011;25997;50.214;19.354;2022-08-19T12:24:04;14.52;;;7.45;;
40284;SDS011;25997;50.214;19.354;2022-08-19T12:27:09;15.75;;;8.25;;
40284;SDS011;25997;50.214;19.354;2022-08-19T12:30:12;14.77;;;7.55;;
40284;SDS011;25997;50.214;19.354;2022-08-19T12:33:15;12.25;;;7.82;;
40284;SDS011;25997;50.214;19.354;2022-08-19T12:36:18;13.35;;;8.68;;
40284;SDS011;25997;50.214;19.354;2022-08-19T12:39:20;10.48;;;7.35;;
40284;SDS011;25997;50.214;19.354;2022-08-19T12:42:24;12.88;;;7.10;;
40284;SDS011;25997;50.214;19.354;2022-08-19T12:45:27;15.05;;;7.22;;
40284;SDS011;25997;50.214;19.354;2022-08-19T12:48:30;9.93;;;7.03;;
40284;SDS011;25997;50.214;19.354;2022-08-19T12:51:33;14.95;;;7.13;;
40284;SDS011;25997;50.214;19.354;2022-08-19T12:54:36;16.50;;;6.72;;
40284;SDS011;25997;50.214;19.354;2022-08-19T12:57:40;15.43;;;7.85;;
40284;SDS011;25997;50.214;19.354;2022-08-19T13:00:42;13.57;;;7.88;;
40284;SDS011;25997;50.214;19.354;2022-08-19T13:03:45;13.85;;;8.20;;
40284;SDS011;25997;50.214;19.354;2022-08-19T13:06:48;17.98;;;8.60;;
40284;SDS011;25997;50.214;19.354;2022-08-19T13:09:51;12.45;;;7.75;;
40284;SDS011;25997;50.214;19.354;2022-08-19T13:12:56;17.80;;;8.32;;
40284;SDS011;25997;50.214;19.354;2022-08-19T13:16:00;13.25;;;9.18;;
40284;SDS011;25997;50.214;19.354;2022-08-19T13:19:04;15.00;;;7.90;;
40284;SDS011;25997;50.214;19.354;2022-08-19T13:22:08;12.00;;;8.10;;
40284;SDS011;25997;50.214;19.354;2022-08-19T13:25:10;14.27;;;8.93;;
40284;SDS011;25997;50.214;19.354;2022-08-19T13:28:15;12.95;;;8.18;;
40284;SDS011;25997;50.214;19.354;2022-08-19T13:31:18;14.98;;;8.40;;
40284;SDS011;25997;50.214;19.354;2022-08-19T13:34:54;12.20;;;6.60;;
40284;SDS011;25997;50.214;19.354;2022-08-19T13:37:56;12.15;;;8.10;;
40284;SDS011;25997;50.214;19.354;2022-08-19T13:41:03;16.42;;;8.85;;
40284;SDS011;25997;50.214;19.354;2022-08-19T13:44:09;12.27;;;10.50;;
40284;SDS011;25997;50.214;19.354;2022-08-19T13:47:12;14.95;;;8.80;;
40284;SDS011;25997;50.214;19.354;2022-08-19T13:50:16;12.95;;;9.60;;
40284;SDS011;25997;50.214;19.354;2022-08-19T13:53:19;11.05;;;8.85;;
40284;SDS011;25997;50.214;19.354;2022-08-19T13:56:22;17.85;;;9.98;;
40284;SDS011;25997;50.214;19.354;2022-08-19T13:59:26;15.60;;;9.68;;
40284;SDS011;25997;50.214;19.354;2022-08-19T14:02:28;14.35;;;8.50;;
40284;SDS011;25997;50.214;19.354;2022-08-19T14:05:31;14.82;;;9.05;;
40284;SDS011;25997;50.214;19.354;2022-08-19T14:08:34;14.13;;;8.48;;
40284;SDS011;25997;50.214;19.354;2022-08-19T14:11:40;13.88;;;8.60;;
40284;SDS011;25997;50.214;19.354;2022-08-19T14:14:44;13.52;;;9.68;;
40284;SDS011;25997;50.214;19.354;2022-08-19T14:17:46;18.88;;;11.60;;
40284;SDS011;25997;50.214;19.354;2022-08-19T14:20:49;13.45;;;9.18;;
40284;SDS011;25997;50.214;19.354;2022-08-19T14:23:52;15.73;;;10.73;;
40284;SDS011;25997;50.214;19.354;2022-08-19T14:26:55;15.68;;;10.43;;
40284;SDS011;25997;50.214;19.354;2022-08-19T14:30:00;14.98;;;10.63;;
40284;SDS011;25997;50.214;19.354;2022-08-19T14:33:03;13.77;;;11.25;;
40284;SDS011;25997;50.214;19.354;2022-08-19T14:36:07;16.27;;;11.02;;
40284;SDS011;25997;50.214;19.354;2022-08-19T14:39:10;15.27;;;9.90;;
40284;SDS011;25997;50.214;19.354;2022-08-19T14:42:12;11.82;;;9.18;;
40284;SDS011;25997;50.214;19.354;2022-08-19T14:45:17;15.65;;;9.80;;
40284;SDS011;25997;50.214;19.354;2022-08-19T14:48:19;10.98;;;9.68;;
40284;SDS011;25997;50.214;19.354;2022-08-19T14:51:22;11.35;;;9.55;;
40284;SDS011;25997;50.214;19.354;2022-08-19T14:54:27;11.60;;;9.63;;
40284;SDS011;25997;50.214;19.354;2022-08-19T14:57:29;11.57;;;8.90;;
40284;SDS011;25997;50.214;19.354;2022-08-19T15:00:33;11.93;;;8.48;;
40284;SDS011;25997;50.214;19.354;2022-08-19T15:03:36;13.45;;;10.23;;
40284;SDS011;25997;50.214;19.354;2022-08-19T15:06:41;10.65;;;9.35;;
40284;SDS011;25997;50.214;19.354;2022-08-19T15:09:43;10.25;;;9.23;;
40284;SDS011;25997;50.214;19.354;2022-08-19T15:12:46;14.00;;;9.48;;
40284;SDS011;25997;50.214;19.354;2022-08-19T15:15:50;10.57;;;9.23;;
40284;SDS011;25997;50.214;19.354;2022-08-19T15:18:54;11.65;;;9.05;;
40284;SDS011;25997;50.214;19.354;2022-08-19T15:21:58;11.00;;;9.63;;
40284;SDS011;25997;50.214;19.354;2022-08-19T15:25:01;10.38;;;9.40;;
40284;SDS011;25997;50.214;19.354;2022-08-19T15:28:04;11.93;;;9.05;;
40284;SDS011;25997;50.214;19.354;2022-08-19T15:31:08;17.30;;;8.88;;
40284;SDS011;25997;50.214;19.354;2022-08-19T15:34:12;14.95;;;10.07;;
40284;SDS011;25997;50.214;19.354;2022-08-19T15:37:14;15.45;;;9.38;;
40284;SDS011;25997;50.214;19.354;2022-08-19T15:40:18;12.45;;;9.50;;
40284;SDS011;25997;50.214;19.354;2022-08-19T15:43:22;11.10;;;9.77;;
40284;SDS011;25997;50.214;19.354;2022-08-19T15:46:26;18.38;;;9.02;;
40284;SDS011;25997;50.214;19.354;2022-08-19T15:49:30;13.23;;;9.23;;
40284;SDS011;25997;50.214;19.354;2022-08-19T15:52:33;17.77;;;9.80;;
40284;SDS011;25997;50.214;19.354;2022-08-19T15:55:37;14.00;;;9.25;;
40284;SDS011;25997;50.214;19.354;2022-08-19T15:58:44;9.70;;;8.82;;
40284;SDS011;25997;50.214;19.354;2022-08-19T16:02:06;14.15;;;8.80;;
40284;SDS011;25997;50.214;19.354;2022-08-19T16:05:26;15.77;;;9.80;;
40284;SDS011;25997;50.214;19.354;2022-08-19T16:08:46;15.20;;;9.05;;
40284;SDS011;25997;50.214;19.354;2022-08-19T16:11:49;11.48;;;8.90;;
40284;SDS011;25997;50.214;19.354;2022-08-19T16:14:52;12.23;;;9.55;;
40284;SDS011;25997;50.214;19.354;2022-08-19T16:17:57;14.07;;;9.93;;
40284;SDS011;25997;50.214;19.354;2022-08-19T16:21:01;14.07;;;9.45;;
40284;SDS011;25997;50.214;19.354;2022-08-19T16:24:05;14.00;;;9.90;;
40284;SDS011;25997;50.214;19.354;2022-08-19T16:27:08;13.10;;;10.38;;
40284;SDS011;25997;50.214;19.354;2022-08-19T16:30:11;15.73;;;9.48;;
40284;SDS011;25997;50.214;19.354;2022-08-19T16:33:15;11.25;;;8.80;;
40284;SDS011;25997;50.214;19.354;2022-08-19T16:36:18;10.20;;;8.95;;
40284;SDS011;25997;50.214;19.354;2022-08-19T16:39:24;10.07;;;9.02;;
40284;SDS011;25997;50.214;19.354;2022-08-19T16:42:27;10.48;;;9.52;;
40284;SDS011;25997;50.214;19.354;2022-08-19T16:45:30;11.77;;;8.30;;
40284;SDS011;25997;50.214;19.354;2022-08-19T16:48:34;11.27;;;8.85;;
40284;SDS011;25997;50.214;19.354;2022-08-19T16:51:42;11.30;;;8.90;;
40284;SDS011;25997;50.214;19.354;2022-08-19T16:54:45;11.48;;;9.27;;
40284;SDS011;25997;50.214;19.354;2022-08-19T16:57:48;10.50;;;9.40;;
40284;SDS011;25997;50.214;19.354;2022-08-19T17:00:51;11.35;;;9.35;;
40284;SDS011;25997;50.214;19.354;2022-08-19T17:03:56;9.68;;;8.80;;
40284;SDS011;25997;50.214;19.354;2022-08-19T17:06:59;10.23;;;9.10;;
40284;SDS011;25997;50.214;19.354;2022-08-19T17:10:03;12.95;;;9.07;;
40284;SDS011;25997;50.214;19.354;2022-08-19T17:13:06;16.42;;;10.60;;
40284;SDS011;25997;50.214;19.354;2022-08-19T17:16:08;11.70;;;9.85;;
40284;SDS011;25997;50.214;19.354;2022-08-19T17:19:12;11.13;;;10.18;;
40284;SDS011;25997;50.214;19.354;2022-08-19T17:22:16;12.40;;;10.25;;
40284;SDS011;25997;50.214;19.354;2022-08-19T17:25:19;10.98;;;9.68;;
40284;SDS011;25997;50.214;19.354;2022-08-19T17:28:22;15.25;;;11.20;;
40284;SDS011;25997;50.214;19.354;2022-08-19T17:31:28;11.13;;;9.77;;
40284;SDS011;25997;50.214;19.354;2022-08-19T17:34:33;12.88;;;10.63;;
40284;SDS011;25997;50.214;19.354;2022-08-19T17:37:36;13.43;;;10.90;;
40284;SDS011;25997;50.214;19.354;2022-08-19T17:40:39;14.90;;;11.50;;
40284;SDS011;25997;50.214;19.354;2022-08-19T17:43:44;12.57;;;11.35;;
40284;SDS011;25997;50.214;19.354;2022-08-19T17:46:46;11.88;;;10.82;;
40284;SDS011;25997;50.214;19.354;2022-08-19T17:49:50;12.55;;;11.27;;